createdAt,value
2024-02-13T00:01:46.222Z,9.54
2024-02-13T00:04:50.093Z,9.55
2024-02-13T00:07:51.984Z,9.60
2024-02-13T00:10:53.782Z,9.63
2024-02-13T00:13:58.070Z,9.61
2024-02-13T00:16:59.972Z,9.44
2024-02-13T00:20:01.862Z,9.57
2024-02-13T00:23:05.587Z,9.59
2024-02-13T00:26:10.299Z,9.61
2024-02-13T00:29:12.165Z,9.61
2024-02-13T00:32:14.112Z,9.63
2024-02-13T00:35:16.861Z,9.66
2024-02-13T00:38:18.706Z,9.67
2024-02-13T00:41:21.626Z,9.55
2024-02-13T00:44:23.680Z,9.56
2024-02-13T00:47:25.536Z,9.48
2024-02-13T00:50:27.320Z,9.51
2024-02-13T00:53:29.122Z,9.51
2024-02-13T00:56:30.893Z,9.49
2024-02-13T00:59:32.813Z,9.52
2024-02-13T01:02:35.450Z,9.40
2024-02-13T01:05:42.146Z,9.38
2024-02-13T01:08:44.965Z,9.45
2024-02-13T01:11:46.932Z,9.43
2024-02-13T01:14:50.061Z,9.45
2024-02-13T01:17:51.993Z,9.44
2024-02-13T01:20:53.878Z,9.45
2024-02-13T01:23:55.739Z,9.49
2024-02-13T01:26:58.991Z,9.48
2024-02-13T01:30:01.078Z,9.44
2024-02-13T01:33:03.053Z,9.44
2024-02-13T01:36:05.595Z,9.42
2024-02-13T01:39:07.406Z,9.41
2024-02-13T01:42:10.994Z,9.45
2024-02-13T01:45:14.973Z,9.47
2024-02-13T01:48:18.832Z,9.46
2024-02-13T01:51:20.876Z,9.46
2024-02-13T01:54:25.145Z,9.39
2024-02-13T01:57:30.991Z,9.43
2024-02-13T02:00:37.009Z,9.42
2024-02-13T02:03:39.821Z,9.38
2024-02-13T02:06:43.031Z,9.32
2024-02-13T02:09:44.943Z,9.29
2024-02-13T02:12:51.090Z,9.19
2024-02-13T02:15:53.099Z,9.18
2024-02-13T02:18:55.976Z,9.13
2024-02-13T02:21:57.801Z,9.14
2024-02-13T02:24:59.586Z,9.11
2024-02-13T02:28:01.509Z,9.17
2024-02-13T02:31:03.381Z,9.11
2024-02-13T02:34:05.250Z,9.19
2024-02-13T02:37:07.548Z,9.18
2024-02-13T02:40:09.812Z,9.19
2024-02-13T02:43:11.624Z,9.17
2024-02-13T02:46:14.153Z,9.23
2024-02-13T02:49:18.330Z,9.23
2024-02-13T02:52:20.863Z,9.20
2024-02-13T02:55:23.616Z,9.16
2024-02-13T02:58:25.474Z,9.14
2024-02-13T03:01:27.492Z,9.11
2024-02-13T03:04:29.590Z,9.10
2024-02-13T03:07:31.988Z,9.08
2024-02-13T03:10:33.737Z,9.08
2024-02-13T03:13:35.680Z,9.05
2024-02-13T03:16:37.675Z,9.08
2024-02-13T03:19:39.719Z,9.06
2024-02-13T03:22:41.497Z,9.06
2024-02-13T03:25:43.301Z,9.09
2024-02-13T03:28:45.047Z,9.06
2024-02-13T03:31:46.752Z,9.05
2024-02-13T03:34:48.575Z,9.03
2024-02-13T03:37:50.347Z,9.07
2024-02-13T03:40:52.076Z,9.08
2024-02-13T03:43:53.802Z,9.08
2024-02-13T03:46:55.681Z,9.04
2024-02-13T03:49:57.580Z,9.10
2024-02-13T03:52:59.366Z,9.06
2024-02-13T03:56:04.327Z,9.11
2024-02-13T03:59:06.495Z,9.06
2024-02-13T04:02:09.227Z,9.10
2024-02-13T04:05:14.047Z,9.12
2024-02-13T04:08:16.031Z,9.10
2024-02-13T04:11:17.894Z,9.12
2024-02-13T04:14:19.799Z,9.17
2024-02-13T04:17:22.073Z,9.09
2024-02-13T04:20:23.918Z,9.07
2024-02-13T04:23:26.079Z,9.00
2024-02-13T04:26:36.297Z,9.01
2024-02-13T04:29:43.998Z,9.03
2024-02-13T04:32:46.041Z,9.04
2024-02-13T04:35:48.606Z,9.02
2024-02-13T04:38:50.491Z,8.98
2024-02-13T04:41:52.472Z,8.94
2024-02-13T04:44:54.723Z,8.94
2024-02-13T04:47:58.156Z,8.94
2024-02-13T04:51:00.095Z,8.94
2024-02-13T04:54:01.964Z,8.89
2024-02-13T04:57:05.042Z,8.82
2024-02-13T05:00:17.438Z,8.89
2024-02-13T05:03:27.381Z,8.83
2024-02-13T05:07:07.302Z,8.85
2024-02-13T05:10:10.764Z,8.75
2024-02-13T05:13:16.060Z,8.81
2024-02-13T05:16:19.255Z,8.72
2024-02-13T05:19:22.513Z,8.67
2024-02-13T05:22:24.664Z,8.65
2024-02-13T05:25:27.850Z,8.66
2024-02-13T05:28:29.705Z,8.65
2024-02-13T05:31:31.780Z,8.56
2024-02-13T05:34:34.302Z,8.59
2024-02-13T05:37:38.969Z,8.47
2024-02-13T05:40:43.500Z,8.56
2024-02-13T05:43:45.601Z,8.55
2024-02-13T05:46:47.524Z,8.48
2024-02-13T05:49:49.536Z,8.50
2024-02-13T05:52:54.179Z,8.47
2024-02-13T05:55:56.348Z,8.49
2024-02-13T05:58:59.450Z,8.50
2024-02-13T06:02:01.512Z,8.55
2024-02-13T06:05:03.983Z,8.59
2024-02-13T06:08:07.408Z,8.59
2024-02-13T06:11:09.230Z,8.63
2024-02-13T06:14:11.069Z,8.56
2024-02-13T06:17:13.563Z,8.58
2024-02-13T06:20:16.152Z,8.64
2024-02-13T06:23:18.011Z,8.67
2024-02-13T06:26:20.432Z,8.68
2024-02-13T06:29:22.870Z,8.67
2024-02-13T06:32:25.877Z,8.64
2024-02-13T06:35:27.685Z,8.67
2024-02-13T06:38:29.486Z,8.68
2024-02-13T06:41:31.325Z,8.65
2024-02-13T06:44:33.214Z,8.69
2024-02-13T06:47:35.203Z,8.66
2024-02-13T06:50:37.103Z,8.71
2024-02-13T06:53:38.977Z,8.73
2024-02-13T06:56:42.522Z,8.75
2024-02-13T06:59:44.448Z,8.75
2024-02-13T07:02:49.952Z,8.82
2024-02-13T07:05:54.199Z,8.83
2024-02-13T07:08:57.908Z,8.84
2024-02-13T07:11:59.884Z,8.84
2024-02-13T07:15:02.265Z,8.89
2024-02-13T07:21:08.724Z,8.94
2024-02-13T07:24:11.881Z,8.94
2024-02-13T07:27:13.683Z,8.62
2024-02-13T07:30:16.372Z,8.60
2024-02-13T07:33:18.346Z,8.62
2024-02-13T07:36:20.263Z,8.81
2024-02-13T07:39:22.104Z,8.90
2024-02-13T07:42:25.352Z,8.79
2024-02-13T07:45:27.434Z,8.96
2024-02-13T07:48:29.371Z,8.97
2024-02-13T07:51:31.860Z,9.04
2024-02-13T07:54:34.191Z,9.18
2024-02-13T07:57:36.369Z,9.28
2024-02-13T08:00:38.528Z,9.38
2024-02-13T08:03:40.497Z,9.46
2024-02-13T08:06:44.843Z,9.56
2024-02-13T08:09:46.986Z,9.66
2024-02-13T08:12:48.767Z,9.74
2024-02-13T08:15:50.702Z,9.72
2024-02-13T08:18:52.763Z,9.70
2024-02-13T08:21:54.841Z,9.60
2024-02-13T08:24:56.841Z,9.76
2024-02-13T08:27:59.939Z,9.86
2024-02-13T08:31:15.768Z,9.82
2024-02-13T08:34:29.854Z,9.91
2024-02-13T08:37:31.730Z,9.79
2024-02-13T08:40:33.547Z,9.86
2024-02-13T08:43:35.392Z,9.89
2024-02-13T08:46:37.140Z,9.99
2024-02-13T08:49:39.550Z,10.03
2024-02-13T08:52:41.459Z,9.95
2024-02-13T08:55:43.256Z,10.03
2024-02-13T08:58:45.032Z,10.13
2024-02-13T09:01:46.866Z,10.32
2024-02-13T09:04:49.770Z,10.45
2024-02-13T09:07:51.833Z,10.59
2024-02-13T09:10:53.658Z,10.68
2024-02-13T09:13:55.447Z,10.77
2024-02-13T09:16:58.707Z,10.75
2024-02-13T09:20:01.203Z,10.87
2024-02-13T09:23:03.308Z,10.93
2024-02-13T09:26:05.528Z,10.95
2024-02-13T09:29:07.515Z,10.95
2024-02-13T09:32:11.581Z,11.01
2024-02-13T09:35:14.622Z,11.18
2024-02-13T09:38:16.976Z,11.29
2024-02-13T09:41:18.946Z,11.34
2024-02-13T09:44:20.920Z,11.42
2024-02-13T09:47:23.090Z,11.34
2024-02-13T09:50:31.105Z,11.35
2024-02-13T09:53:33.246Z,11.50
2024-02-13T09:56:36.761Z,11.62
2024-02-13T09:59:40.471Z,11.56
2024-02-13T10:02:42.352Z,11.74
2024-02-13T10:05:45.020Z,11.88
2024-02-13T10:08:53.485Z,12.05
2024-02-13T10:11:55.473Z,12.15
2024-02-13T10:14:59.572Z,12.29
2024-02-13T10:18:01.655Z,12.33
2024-02-13T10:21:05.672Z,12.57
2024-02-13T10:24:12.800Z,12.64
2024-02-13T10:27:16.302Z,12.75
2024-02-13T10:30:26.158Z,12.82
2024-02-13T10:33:31.004Z,13.09
2024-02-13T10:36:34.080Z,13.33
2024-02-13T10:39:41.671Z,13.54
2024-02-13T10:42:43.750Z,13.78
2024-02-13T10:45:51.357Z,13.89
2024-02-13T10:49:33.699Z,13.84
2024-02-13T10:52:36.697Z,13.79
2024-02-13T10:55:43.819Z,13.99
2024-02-13T10:58:48.043Z,14.20
2024-02-13T11:01:52.926Z,14.44
2024-02-13T11:04:57.019Z,14.59
2024-02-13T11:08:01.651Z,14.83
2024-02-13T11:11:05.014Z,15.08
2024-02-13T11:14:19.179Z,15.13
2024-02-13T11:17:21.844Z,15.06
2024-02-13T11:20:29.380Z,14.90
2024-02-13T11:23:31.295Z,14.55
2024-02-13T11:26:35.858Z,14.32
2024-02-13T11:29:39.341Z,14.01
2024-02-13T11:32:43.793Z,13.95
2024-02-13T11:35:47.721Z,13.74
2024-02-13T11:38:56.088Z,13.68
2024-02-13T11:41:59.229Z,13.65
2024-02-13T11:45:05.106Z,13.49
2024-02-13T11:48:11.701Z,13.32
2024-02-13T11:51:15.629Z,13.20
2024-02-13T11:54:20.155Z,13.22
2024-02-13T11:57:28.507Z,13.25
2024-02-13T12:00:30.581Z,13.20
2024-02-13T12:03:37.086Z,13.17
2024-02-13T12:06:45.845Z,13.42
2024-02-13T12:09:54.033Z,13.58
2024-02-13T12:12:56.301Z,13.48
2024-02-13T12:15:59.441Z,13.49
2024-02-13T12:19:01.436Z,13.85
2024-02-13T12:22:10.115Z,14.11
2024-02-13T12:25:12.341Z,14.36
2024-02-13T12:28:14.926Z,14.37
2024-02-13T12:31:16.892Z,14.14
2024-02-13T12:34:20.274Z,14.16
2024-02-13T12:37:28.673Z,14.28
2024-02-13T12:40:32.673Z,14.11
2024-02-13T12:43:34.739Z,13.96
2024-02-13T12:46:38.532Z,13.72
2024-02-13T12:49:44.185Z,13.62
2024-02-13T12:52:46.312Z,13.34
2024-02-13T12:55:50.806Z,13.23
2024-02-13T12:58:54.838Z,12.95
2024-02-13T13:02:00.328Z,12.76
2024-02-13T13:05:04.106Z,12.59
2024-02-13T13:08:10.498Z,12.44
2024-02-13T13:11:12.603Z,12.50
2024-02-13T13:14:17.418Z,12.36
2024-02-13T13:17:22.910Z,12.18
2024-02-13T13:20:25.393Z,12.07
2024-02-13T13:23:27.414Z,11.85
2024-02-13T13:26:33.865Z,11.76
2024-02-13T13:29:35.921Z,11.32
2024-02-13T13:32:39.854Z,11.15
2024-02-13T13:35:50.709Z,11.14
2024-02-13T13:38:53.372Z,11.12
2024-02-13T13:41:56.154Z,11.16
2024-02-13T13:44:58.046Z,11.08
2024-02-13T13:48:14.503Z,11.26
2024-02-13T13:51:16.504Z,11.38
2024-02-13T13:54:21.224Z,11.45
2024-02-13T13:57:23.157Z,11.49
2024-02-13T14:00:31.001Z,11.49
2024-02-13T14:03:33.324Z,11.48
2024-02-13T14:06:36.015Z,11.59
2024-02-13T14:09:37.868Z,11.62
2024-02-13T14:12:44.311Z,11.67
2024-02-13T14:15:46.328Z,11.62
2024-02-13T14:18:49.319Z,11.53
2024-02-13T14:21:51.350Z,11.64
2024-02-13T14:24:53.168Z,11.56
2024-02-13T14:27:55.678Z,11.64
2024-02-13T14:30:58.007Z,11.65
2024-02-13T14:34:00.983Z,11.71
2024-02-13T14:37:03.176Z,11.61
2024-02-13T14:40:07.307Z,11.66
2024-02-13T14:43:10.951Z,11.66
2024-02-13T14:46:12.768Z,11.58
2024-02-13T14:49:14.893Z,11.60
2024-02-13T14:52:16.789Z,11.55
2024-02-13T14:55:18.674Z,11.56
2024-02-13T14:58:34.019Z,11.62
2024-02-13T15:01:40.984Z,11.64
2024-02-13T15:04:42.945Z,11.58
2024-02-13T15:07:46.136Z,11.67
2024-02-13T15:10:49.442Z,11.65
2024-02-13T15:13:51.284Z,11.64
2024-02-13T15:16:53.845Z,11.58
2024-02-13T15:19:56.788Z,11.59
2024-02-13T15:22:58.590Z,11.53
2024-02-13T15:26:00.409Z,11.43
2024-02-13T15:29:02.230Z,11.44
2024-02-13T15:32:05.635Z,11.34
2024-02-13T15:35:11.001Z,11.29
2024-02-13T15:38:31.369Z,11.19
2024-02-13T15:41:51.799Z,11.25
2024-02-13T15:45:12.265Z,11.29
2024-02-13T15:48:16.586Z,11.26
2024-02-13T15:51:18.489Z,11.06
2024-02-13T15:54:20.276Z,11.06
2024-02-13T15:57:22.058Z,11.04
2024-02-13T16:00:28.135Z,11.04
2024-02-13T16:03:30.573Z,11.03
2024-02-13T16:06:37.860Z,10.89
2024-02-13T16:09:39.805Z,10.77
2024-02-13T16:12:44.712Z,10.82
2024-02-13T16:15:47.973Z,10.80
2024-02-13T16:18:50.807Z,10.74
2024-02-13T16:21:54.141Z,10.62
2024-02-13T16:24:56.900Z,10.71
2024-02-13T16:27:59.820Z,10.66
2024-02-13T16:31:01.633Z,10.61
2024-02-13T16:34:04.420Z,10.62
2024-02-13T16:37:06.387Z,10.58
2024-02-13T16:40:12.252Z,10.51
2024-02-13T16:43:14.050Z,10.56
2024-02-13T16:46:21.498Z,10.53
2024-02-13T16:49:25.478Z,10.54
2024-02-13T16:52:30.336Z,10.51
2024-02-13T16:55:32.591Z,10.50
2024-02-13T16:58:34.380Z,10.44
2024-02-13T17:01:37.779Z,10.43
2024-02-13T17:04:40.954Z,10.41
2024-02-13T17:07:44.710Z,10.33
2024-02-13T17:10:46.676Z,10.31
2024-02-13T17:13:48.484Z,10.30
2024-02-13T17:16:50.430Z,10.31
2024-02-13T17:19:55.092Z,10.34
2024-02-13T17:22:57.292Z,10.34
2024-02-13T17:25:59.104Z,10.40
2024-02-13T17:29:01.069Z,10.29
2024-02-13T17:32:02.908Z,10.22
2024-02-13T17:35:07.927Z,10.24
2024-02-13T17:38:11.447Z,10.17
2024-02-13T17:41:16.105Z,10.08
2024-02-13T17:44:17.935Z,10.08
2024-02-13T17:47:19.875Z,10.10
2024-02-13T17:50:21.711Z,10.10
2024-02-13T17:53:23.521Z,10.05
2024-02-13T17:56:25.389Z,10.01
2024-02-13T17:59:27.270Z,10.00
2024-02-13T18:02:29.632Z,9.97
2024-02-13T18:05:34.729Z,9.91
2024-02-13T18:08:36.749Z,9.85
2024-02-13T18:11:39.345Z,9.98
2024-02-13T18:14:42.388Z,9.99
2024-02-13T18:17:46.333Z,10.04
2024-02-13T18:20:48.540Z,9.95
2024-02-13T18:23:55.489Z,10.05
2024-02-13T18:26:58.296Z,9.93
2024-02-13T18:30:00.214Z,9.94
2024-02-13T18:33:02.377Z,9.94
2024-02-13T18:36:05.044Z,9.95
2024-02-13T18:39:06.919Z,9.87
2024-02-13T18:42:08.786Z,9.78
2024-02-13T18:45:10.698Z,9.75
2024-02-13T18:48:12.724Z,9.73
2024-02-13T18:51:17.726Z,9.59
2024-02-13T18:54:19.555Z,9.57
2024-02-13T18:57:21.408Z,9.46
2024-02-13T19:00:25.017Z,9.48
2024-02-13T19:03:26.827Z,9.51
2024-02-13T19:06:29.644Z,9.44
2024-02-13T19:09:31.552Z,9.47
2024-02-13T19:12:34.748Z,9.40
2024-02-13T19:15:36.763Z,9.31
2024-02-13T19:18:39.767Z,9.33
2024-02-13T19:21:42.783Z,9.37
2024-02-13T19:24:44.649Z,9.40
2024-02-13T19:27:49.008Z,9.40
2024-02-13T19:30:51.833Z,9.42
2024-02-13T19:33:54.281Z,9.41
2024-02-13T19:36:57.672Z,9.45
2024-02-13T19:39:59.611Z,9.38
2024-02-13T19:43:01.569Z,9.38
2024-02-13T19:46:03.474Z,9.37
2024-02-13T19:49:05.960Z,9.15
2024-02-13T19:52:08.212Z,9.23
2024-02-13T19:55:10.429Z,9.26
2024-02-13T19:58:12.314Z,9.23
2024-02-13T20:01:14.350Z,9.21
2024-02-13T20:04:16.429Z,9.24
2024-02-13T20:07:18.287Z,9.21
2024-02-13T20:10:23.077Z,9.18
2024-02-13T20:13:25.784Z,9.04
2024-02-13T20:16:27.687Z,9.09
2024-02-13T20:19:30.146Z,9.08
2024-02-13T20:22:32.267Z,9.09
2024-02-13T20:25:34.100Z,9.10
2024-02-13T20:28:36.019Z,9.12
2024-02-13T20:31:37.777Z,9.07
2024-02-13T20:34:39.709Z,9.01
2024-02-13T20:37:41.976Z,9.07
2024-02-13T20:40:43.793Z,9.05
2024-02-13T20:43:45.730Z,8.97
2024-02-13T20:46:47.483Z,8.88
2024-02-13T20:49:49.341Z,8.85
2024-02-13T20:52:51.453Z,8.94
2024-02-13T20:55:58.344Z,8.92
2024-02-13T20:59:03.153Z,9.09
2024-02-13T21:02:06.833Z,9.13
2024-02-13T21:05:10.113Z,9.04
2024-02-13T21:08:12.915Z,9.00
2024-02-13T21:11:14.944Z,8.98
2024-02-13T21:14:16.775Z,8.97
2024-02-13T21:17:19.524Z,9.01
2024-02-13T21:20:28.480Z,9.03
2024-02-13T21:23:49.012Z,9.02
2024-02-13T21:26:50.859Z,9.02
2024-02-13T21:29:52.912Z,8.92
2024-02-13T21:32:55.070Z,8.92
2024-02-13T21:35:56.903Z,8.99
2024-02-13T21:38:58.723Z,9.04
2024-02-13T21:42:00.573Z,8.97
2024-02-13T21:45:03.682Z,8.92
2024-02-13T21:48:06.482Z,8.90
2024-02-13T21:51:08.693Z,8.88
2024-02-13T21:54:10.681Z,8.85
2024-02-13T21:57:12.558Z,8.88
2024-02-13T22:00:14.900Z,8.95
2024-02-13T22:03:16.982Z,8.94
2024-02-13T22:06:19.729Z,8.89
2024-02-13T22:09:22.177Z,8.91
2024-02-13T22:12:23.987Z,8.88
2024-02-13T22:15:25.768Z,8.85
2024-02-13T22:18:27.673Z,8.89
2024-02-13T22:21:30.635Z,8.88
2024-02-13T22:24:33.533Z,8.87
2024-02-13T22:27:35.378Z,8.81
2024-02-13T22:30:37.180Z,8.86
2024-02-13T22:33:39.139Z,8.80
2024-02-13T22:36:41.173Z,8.67
2024-02-13T22:39:43.620Z,8.64
2024-02-13T22:42:45.393Z,8.65
2024-02-13T22:45:47.175Z,8.66
2024-02-13T22:48:49.732Z,8.63
2024-02-13T22:51:51.610Z,8.50
2024-02-13T22:54:53.366Z,8.55
2024-02-13T22:57:55.245Z,8.62
2024-02-13T23:01:00.330Z,8.69
2024-02-13T23:04:05.178Z,8.65
2024-02-13T23:07:07.223Z,8.64
2024-02-13T23:10:10.244Z,8.59
2024-02-13T23:13:13.953Z,8.61
2024-02-13T23:16:15.930Z,8.62
2024-02-13T23:19:18.368Z,8.61
2024-02-13T23:22:20.184Z,8.61
2024-02-13T23:25:22.912Z,8.64
2024-02-13T23:28:24.862Z,8.61
2024-02-13T23:31:26.768Z,8.54
2024-02-13T23:34:28.622Z,8.52
2024-02-13T23:37:30.506Z,8.52
2024-02-13T23:40:32.273Z,8.49
2024-02-13T23:43:34.708Z,8.48
2024-02-13T23:46:36.543Z,8.41
2024-02-13T23:49:38.842Z,8.39
2024-02-13T23:52:41.171Z,8.28
2024-02-13T23:55:43.005Z,8.27
2024-02-13T23:58:46.986Z,8.24
